Time,TemperatureF,DewpointF,PressureIn,WindDirection,WindDirectionDegrees,WindSpeedMPH,WindSpeedGustMPH,Humidity,HourlyPrecipIn,Conditions,Clouds,dailyrainin,SoftwareType,DateUTC
2013-02-02 00:00:00,47.9,25.9,30.32,NNW,338,3.0,3.0,42,0.00,,,0.00,Wunderground v.1.15,2013-02-02 05:00:00,
2013-02-02 00:05:00,47.7,25.1,30.32,NNW,333,3.0,4.0,41,0.00,,,0.00,Wunderground v.1.15,2013-02-02 05:05:00,
2013-02-02 00:10:00,47.6,25.0,30.32,NW,316,2.0,2.0,41,0.00,,,0.00,Wunderground v.1.15,2013-02-02 05:10:00,
2013-02-02 00:15:00,47.5,25.5,30.33,NW,321,3.0,3.0,42,0.00,,,0.00,Wunderground v.1.15,2013-02-02 05:15:00,
2013-02-02 00:25:00,47.2,25.3,30.32,NW,322,2.0,4.0,42,0.00,,,0.00,Wunderground v.1.15,2013-02-02 05:25:00,
2013-02-02 00:35:00,46.9,25.0,30.32,North,360,1.0,5.0,42,0.00,,,0.00,Wunderground v.1.15,2013-02-02 05:35:00,
2013-02-02 00:45:00,46.7,25.4,30.32,NW,323,2.0,2.0,43,0.00,,,0.00,Wunderground v.1.15,2013-02-02 05:45:00,
2013-02-02 00:50:00,46.6,25.8,30.32,NNW,337,2.0,2.0,44,0.00,,,0.00,Wunderground v.1.15,2013-02-02 05:50:00,
2013-02-02 00:55:00,46.4,25.1,30.33,NNW,327,2.0,2.0,43,0.00,,,0.00,Wunderground v.1.15,2013-02-02 05:55:00,
2013-02-02 01:05:00,46.1,24.8,30.33,NNW,336,2.0,5.0,43,0.00,,,0.00,Wunderground v.1.15,2013-02-02 06:05:00,
2013-02-02 01:15:00,45.8,24.5,30.33,NNW,334,1.0,4.0,43,0.00,,,0.00,Wunderground v.1.15,2013-02-02 06:15:00,
2013-02-02 01:25:00,45.5,24.8,30.33,NNW,346,2.0,2.0,44,0.00,,,0.00,Wunderground v.1.15,2013-02-02 06:25:00,
2013-02-02 01:35:00,45.2,24.6,30.33,North,355,2.0,3.0,44,0.00,,,0.00,Wunderground v.1.15,2013-02-02 06:35:00,
2013-02-02 01:45:00,45.0,24.9,30.33,NNW,331,2.0,2.0,45,0.00,,,0.00,Wunderground v.1.15,2013-02-02 06:45:00,
2013-02-02 01:55:00,44.7,24.6,30.33,NNW,333,1.0,2.0,45,0.00,,,0.00,Wunderground v.1.15,2013-02-02 06:55:00,
2013-02-02 02:05:00,44.4,24.9,30.33,NNW,332,1.0,1.0,46,0.00,,,0.00,Wunderground v.1.15,2013-02-02 07:05:00,
2013-02-02 02:10:00,44.2,25.2,30.33,NNW,332,0.0,2.0,47,0.00,,,0.00,Wunderground v.1.15,2013-02-02 07:10:00,
2013-02-02 02:20:00,44.0,25.5,30.32,NNW,332,1.0,1.0,48,0.00,,,0.00,Wunderground v.1.15,2013-02-02 07:20:00,
2013-02-02 02:30:00,43.7,25.8,30.32,NNW,332,2.0,2.0,49,0.00,,,0.00,Wunderground v.1.15,2013-02-02 07:30:00,
2013-02-02 02:35:00,43.6,25.7,30.32,NNW,332,3.0,3.0,49,0.00,,,0.00,Wunderground v.1.15,2013-02-02 07:35:00,
2013-02-02 02:45:00,43.5,26.1,30.32,NNW,332,1.0,2.0,50,0.00,,,0.00,Wunderground v.1.15,2013-02-02 07:45:00,
2013-02-02 02:55:00,43.0,27.0,30.32,NNW,335,2.0,2.0,53,0.00,,,0.00,Wunderground v.1.15,2013-02-02 07:55:00,
2013-02-02 03:00:00,42.5,27.0,30.31,NNW,333,3.0,3.0,54,0.00,,,0.00,Wunderground v.1.15,2013-02-02 08:00:00,
2013-02-02 03:10:00,42.1,26.2,30.32,NW,314,3.0,4.0,53,0.00,,,0.00,Wunderground v.1.15,2013-02-02 08:10:00,
2013-02-02 03:20:00,41.8,25.9,30.32,NNW,346,4.0,4.0,53,0.00,,,0.00,Wunderground v.1.15,2013-02-02 08:20:00,
2013-02-02 03:25:00,41.7,26.3,30.32,NNW,331,4.0,4.0,54,0.00,,,0.00,Wunderground v.1.15,2013-02-02 08:25:00,
2013-02-02 03:35:00,41.3,25.4,30.32,NNW,327,3.0,5.0,53,0.00,,,0.00,Wunderground v.1.15,2013-02-02 08:35:00,
2013-02-02 03:45:00,40.9,26.0,30.32,NNW,344,3.0,4.0,55,0.00,,,0.00,Wunderground v.1.15,2013-02-02 08:45:00,
2013-02-02 03:50:00,40.6,25.7,30.32,NW,321,3.0,3.0,55,0.00,,,0.00,Wunderground v.1.15,2013-02-02 08:50:00,
2013-02-02 04:00:00,40.3,25.4,30.32,WNW,295,3.0,5.0,55,0.00,,,0.00,Wunderground v.1.15,2013-02-02 09:00:00,
2013-02-02 04:10:00,40.1,25.6,30.33,NNW,331,5.0,5.0,56,0.00,,,0.00,Wunderground v.1.15,2013-02-02 09:10:00,
2013-02-02 04:15:00,40.0,26.0,30.32,NW,322,4.0,5.0,57,0.00,,,0.00,Wunderground v.1.15,2013-02-02 09:15:00,
2013-02-02 04:25:00,39.6,26.0,30.32,NW,321,2.0,3.0,58,0.00,,,0.00,Wunderground v.1.15,2013-02-02 09:25:00,
2013-02-02 04:35:00,39.5,25.1,30.32,NNW,331,4.0,6.0,56,0.00,,,0.00,Wunderground v.1.15,2013-02-02 09:35:00,
2013-02-02 04:40:00,39.4,25.0,30.32,NNW,330,3.0,4.0,56,0.00,,,0.00,Wunderground v.1.15,2013-02-02 09:40:00,
2013-02-02 04:50:00,39.2,24.8,30.32,NNW,335,4.0,4.0,56,0.00,,,0.00,Wunderground v.1.15,2013-02-02 09:50:00,
2013-02-02 05:00:00,39.0,24.6,30.32,NNW,330,3.0,3.0,56,0.00,,,0.00,Wunderground v.1.15,2013-02-02 10:00:00,
2013-02-02 05:05:00,38.9,24.5,30.32,NNW,331,3.0,3.0,56,0.00,,,0.00,Wunderground v.1.15,2013-02-02 10:05:00,
2013-02-02 05:15:00,38.6,23.4,30.32,NW,307,4.0,7.0,54,0.00,,,0.00,Wunderground v.1.15,2013-02-02 10:15:00,
2013-02-02 05:25:00,38.4,23.6,30.33,NNW,343,3.0,4.0,55,0.00,,,0.00,Wunderground v.1.15,2013-02-02 10:25:00,
2013-02-02 05:35:00,38.3,24.0,30.33,NNW,335,3.0,3.0,56,0.00,,,0.00,Wunderground v.1.15,2013-02-02 10:35:00,
2013-02-02 05:45:00,38.2,23.9,30.33,NW,311,2.0,4.0,56,0.00,,,0.00,Wunderground v.1.15,2013-02-02 10:45:00,
2013-02-02 05:50:00,38.1,23.8,30.33,NW,311,2.0,2.0,56,0.00,,,0.00,Wunderground v.1.15,2013-02-02 10:50:00,
2013-02-02 06:00:00,38.1,23.8,30.33,NW,320,4.0,4.0,56,0.00,,,0.00,Wunderground v.1.15,2013-02-02 11:00:00,
2013-02-02 06:05:00,38.0,23.7,30.34,NW,314,4.0,5.0,56,0.00,,,0.00,Wunderground v.1.15,2013-02-02 11:05:00,
2013-02-02 06:15:00,37.9,23.6,30.34,NW,320,4.0,6.0,56,0.00,,,0.00,Wunderground v.1.15,2013-02-02 11:15:00,
2013-02-02 06:25:00,37.7,23.8,30.34,NNW,338,5.0,9.0,57,0.00,,,0.00,Wunderground v.1.15,2013-02-02 11:25:00,
2013-02-02 06:35:00,37.5,23.2,30.34,NW,315,4.0,5.0,56,0.00,,,0.00,Wunderground v.1.15,2013-02-02 11:35:00,
2013-02-02 06:40:00,37.4,23.5,30.34,NW,317,4.0,4.0,57,0.00,,,0.00,Wunderground v.1.15,2013-02-02 11:40:00,
2013-02-02 06:50:00,37.1,23.3,30.35,NW,321,2.0,4.0,57,0.00,,,0.00,Wunderground v.1.15,2013-02-02 11:50:00,
2013-02-02 07:00:00,36.9,23.5,30.35,NW,313,3.0,3.0,58,0.00,,,0.00,Wunderground v.1.15,2013-02-02 12:00:00,
2013-02-02 07:05:00,36.8,23.4,30.35,NW,315,4.0,4.0,58,0.00,,,0.00,Wunderground v.1.15,2013-02-02 12:05:00,
2013-02-02 07:15:00,36.5,23.5,30.35,NNW,340,3.0,3.0,59,0.00,,,0.00,Wunderground v.1.15,2013-02-02 12:15:00,
2013-02-02 07:25:00,36.3,23.7,30.35,NNW,327,4.0,6.0,60,0.00,,,0.00,Wunderground v.1.15,2013-02-02 12:25:00,
2013-02-02 07:35:00,36.0,22.6,30.35,NW,313,4.0,5.0,58,0.00,,,0.00,Wunderground v.1.15,2013-02-02 12:35:00,
2013-02-02 07:45:00,35.8,22.9,30.35,NNW,348,4.0,4.0,59,0.00,,,0.00,Wunderground v.1.15,2013-02-02 12:45:00,
2013-02-02 07:50:00,35.9,23.0,30.35,NNW,333,4.0,4.0,59,0.00,,,0.00,Wunderground v.1.15,2013-02-02 12:50:00,
2013-02-02 08:00:00,35.9,23.0,30.35,NNW,333,2.0,2.0,59,0.00,,,0.00,Wunderground v.1.15,2013-02-02 13:00:00,
2013-02-02 08:05:00,36.1,23.1,30.35,NNW,333,2.0,4.0,59,0.00,,,0.00,Wunderground v.1.15,2013-02-02 13:05:00,
2013-02-02 08:15:00,36.5,23.9,30.35,NNW,342,3.0,5.0,60,0.00,,,0.00,Wunderground v.1.15,2013-02-02 13:15:00,
2013-02-02 08:25:00,37.0,24.4,30.35,NNW,342,2.0,4.0,60,0.00,,,0.00,Wunderground v.1.15,2013-02-02 13:25:00,
2013-02-02 08:35:00,37.7,25.1,30.35,NNW,342,3.0,3.0,60,0.00,,,0.00,Wunderground v.1.15,2013-02-02 13:35:00,
2013-02-02 08:40:00,38.0,25.7,30.35,NNW,334,3.0,4.0,61,0.00,,,0.00,Wunderground v.1.15,2013-02-02 13:40:00,
2013-02-02 08:50:00,38.9,26.6,30.35,NNW,334,3.0,3.0,61,0.00,,,0.00,Wunderground v.1.15,2013-02-02 13:50:00,
2013-02-02 09:00:00,39.8,27.4,30.35,NNW,336,3.0,3.0,61,0.00,,,0.00,Wunderground v.1.15,2013-02-02 14:00:00,
2013-02-02 09:05:00,40.3,27.5,30.35,NW,308,3.0,3.0,60,0.00,,,0.00,Wunderground v.1.15,2013-02-02 14:05:00,
2013-02-02 09:15:00,41.4,28.9,30.35,NW,324,2.0,4.0,61,0.00,,,0.00,Wunderground v.1.15,2013-02-02 14:15:00,
2013-02-02 09:25:00,42.5,29.6,30.35,NNW,329,2.0,5.0,60,0.00,,,0.00,Wunderground v.1.15,2013-02-02 14:25:00,
2013-02-02 09:30:00,42.9,29.5,30.35,NNW,329,2.0,4.0,59,0.00,,,0.00,Wunderground v.1.15,2013-02-02 14:30:00,
2013-02-02 09:35:00,43.5,30.5,30.35,NNW,330,1.0,4.0,60,0.00,,,0.00,Wunderground v.1.15,2013-02-02 14:35:00,
2013-02-02 09:45:00,44.3,30.9,30.35,NW,321,3.0,3.0,59,0.00,,,0.00,Wunderground v.1.15,2013-02-02 14:45:00,
2013-02-02 09:50:00,44.7,31.2,30.35,NW,312,4.0,6.0,59,0.00,,,0.00,Wunderground v.1.15,2013-02-02 14:50:00,
2013-02-02 10:00:00,45.7,32.6,30.34,NW,321,3.0,3.0,60,0.00,,,0.00,Wunderground v.1.15,2013-02-02 15:00:00,
2013-02-02 10:05:00,46.3,32.7,30.34,NW,321,2.0,3.0,59,0.00,,,0.00,Wunderground v.1.15,2013-02-02 15:05:00,
2013-02-02 10:15:00,47.7,34.1,30.35,North,5,1.0,1.0,59,0.00,,,0.00,Wunderground v.1.15,2013-02-02 15:15:00,
2013-02-02 10:20:00,48.3,34.2,30.34,North,360,1.0,1.0,58,0.00,,,0.00,Wunderground v.1.15,2013-02-02 15:20:00,
2013-02-02 10:30:00,49.4,35.2,30.34,East,96,1.0,1.0,58,0.00,,,0.00,Wunderground v.1.15,2013-02-02 15:30:00,
2013-02-02 10:40:00,50.7,36.0,30.34,East,96,0.0,0.0,57,0.00,,,0.00,Wunderground v.1.15,2013-02-02 15:40:00,
2013-02-02 10:50:00,51.5,36.3,30.34,ENE,67,0.0,0.0,56,0.00,,,0.00,Wunderground v.1.15,2013-02-02 15:50:00,
2013-02-02 11:00:00,51.7,35.6,30.33,NNW,346,1.0,2.0,54,0.00,,,0.00,Wunderground v.1.15,2013-02-02 16:00:00,
2013-02-02 11:05:00,51.9,35.3,30.34,NNW,327,1.0,2.0,53,0.00,,,0.00,Wunderground v.1.15,2013-02-02 16:05:00,
2013-02-02 11:10:00,52.5,34.9,30.33,NNW,331,0.0,0.0,51,0.00,,,0.00,Wunderground v.1.15,2013-02-02 16:10:00,
2013-02-02 11:20:00,53.6,35.4,30.33,East,91,2.0,2.0,50,0.00,,,0.00,Wunderground v.1.15,2013-02-02 16:20:00,
2013-02-02 11:30:00,54.5,34.1,30.32,East,92,1.0,1.0,46,0.00,,,0.00,Wunderground v.1.15,2013-02-02 16:30:00,
2013-02-02 11:35:00,55.0,34.0,30.32,East,90,1.0,2.0,45,0.00,,,0.00,Wunderground v.1.15,2013-02-02 16:35:00,
2013-02-02 11:45:00,55.9,34.8,30.31,East,90,0.0,1.0,45,0.00,,,0.00,Wunderground v.1.15,2013-02-02 16:45:00,
2013-02-02 11:55:00,56.4,34.7,30.30,SSE,166,2.0,2.0,44,0.00,,,0.00,Wunderground v.1.15,2013-02-02 16:55:00,
2013-02-02 12:05:00,56.9,34.6,30.29,SE,146,1.0,2.0,43,0.00,,,0.00,Wunderground v.1.15,2013-02-02 17:05:00,
2013-02-02 12:15:00,57.0,32.9,30.29,SE,140,2.0,2.0,40,0.00,,,0.00,Wunderground v.1.15,2013-02-02 17:15:00,
2013-02-02 12:20:00,57.0,30.3,30.28,SE,132,1.0,1.0,36,0.00,,,0.00,Wunderground v.1.15,2013-02-02 17:20:00,
2013-02-02 12:30:00,57.3,29.1,30.27,SE,128,1.0,1.0,34,0.00,,,0.00,Wunderground v.1.15,2013-02-02 17:30:00,
2013-02-02 12:35:00,57.5,29.3,30.27,SE,128,1.0,1.0,34,0.00,,,0.00,Wunderground v.1.15,2013-02-02 17:35:00,
2013-02-02 12:45:00,58.4,31.5,30.27,SE,128,1.0,2.0,36,0.00,,,0.00,Wunderground v.1.15,2013-02-02 17:45:00,
2013-02-02 12:55:00,58.7,31.8,30.26,ESE,111,2.0,2.0,36,0.00,,,0.00,Wunderground v.1.15,2013-02-02 17:55:00,
2013-02-02 13:05:00,58.9,32.7,30.25,ESE,110,2.0,4.0,37,0.00,,,0.00,Wunderground v.1.15,2013-02-02 18:05:00,
2013-02-02 13:15:00,59.3,35.0,30.25,ESE,113,1.0,1.0,40,0.00,,,0.00,Wunderground v.1.15,2013-02-02 18:15:00,
2013-02-02 13:25:00,59.9,34.9,30.24,ESE,111,1.0,2.0,39,0.00,,,0.00,Wunderground v.1.15,2013-02-02 18:25:00,
2013-02-02 13:35:00,60.3,36.5,30.23,ESE,107,1.0,4.0,41,0.00,,,0.00,Wunderground v.1.15,2013-02-02 18:35:00,
2013-02-02 13:40:00,59.9,36.1,30.23,ESE,103,2.0,4.0,41,0.00,,,0.00,Wunderground v.1.15,2013-02-02 18:40:00,
2013-02-02 13:50:00,59.9,36.7,30.22,East,100,2.0,2.0,42,0.00,,,0.00,Wunderground v.1.15,2013-02-02 18:50:00,
2013-02-02 14:00:00,60.4,38.4,30.22,East,100,2.0,2.0,44,0.00,,,0.00,Wunderground v.1.15,2013-02-02 19:00:00,
2013-02-02 14:05:00,60.6,38.0,30.21,East,100,2.0,2.0,43,0.00,,,0.00,Wunderground v.1.15,2013-02-02 19:05:00,
2013-02-02 14:15:00,60.7,38.6,30.21,East,93,3.0,6.0,44,0.00,,,0.00,Wunderground v.1.15,2013-02-02 19:15:00,
2013-02-02 14:25:00,60.8,38.1,30.21,East,91,3.0,6.0,43,0.00,,,0.00,Wunderground v.1.15,2013-02-02 19:25:00,
2013-02-02 14:35:00,61.2,37.9,30.20,East,96,2.0,4.0,42,0.00,,,0.00,Wunderground v.1.15,2013-02-02 19:35:00,
2013-02-02 14:45:00,61.4,38.1,30.20,East,96,2.0,2.0,42,0.00,,,0.00,Wunderground v.1.15,2013-02-02 19:45:00,
2013-02-02 14:50:00,61.7,39.0,30.20,East,96,1.0,1.0,43,0.00,,,0.00,Wunderground v.1.15,2013-02-02 19:50:00,
2013-02-02 15:00:00,62.2,38.8,30.19,East,96,1.0,1.0,42,0.00,,,0.00,Wunderground v.1.15,2013-02-02 20:00:00,
2013-02-02 15:05:00,62.2,38.8,30.19,East,96,1.0,1.0,42,0.00,,,0.00,Wunderground v.1.15,2013-02-02 20:05:00,
2013-02-02 15:15:00,62.2,38.8,30.18,East,87,1.0,1.0,42,0.00,,,0.00,Wunderground v.1.15,2013-02-02 20:15:00,
2013-02-02 15:25:00,62.4,39.6,30.18,East,90,1.0,1.0,43,0.00,,,0.00,Wunderground v.1.15,2013-02-02 20:25:00,
2013-02-02 15:35:00,62.5,39.1,30.18,East,90,1.0,1.0,42,0.00,,,0.00,Wunderground v.1.15,2013-02-02 20:35:00,
2013-02-02 15:40:00,62.5,39.7,30.17,East,91,1.0,1.0,43,0.00,,,0.00,Wunderground v.1.15,2013-02-02 20:40:00,
2013-02-02 15:50:00,62.7,38.6,30.17,East,92,1.0,1.0,41,0.00,,,0.00,Wunderground v.1.15,2013-02-02 20:50:00,
2013-02-02 16:00:00,63.0,38.9,30.17,East,92,1.0,1.0,41,0.00,,,0.00,Wunderground v.1.15,2013-02-02 21:00:00,
2013-02-02 16:05:00,63.0,38.9,30.17,East,92,1.0,1.0,41,0.00,,,0.00,Wunderground v.1.15,2013-02-02 21:05:00,
2013-02-02 16:15:00,62.7,40.5,30.17,East,92,0.0,2.0,44,0.00,,,0.00,Wunderground v.1.15,2013-02-02 21:15:00,
2013-02-02 16:25:00,62.4,39.6,30.17,East,92,0.0,0.0,43,0.00,,,0.00,Wunderground v.1.15,2013-02-02 21:25:00,
2013-02-02 16:30:00,62.2,40.6,30.17,East,92,0.0,0.0,45,0.00,,,0.00,Wunderground v.1.15,2013-02-02 21:30:00,
2013-02-02 16:35:00,62.2,41.2,30.17,East,92,0.0,0.0,46,0.00,,,0.00,Wunderground v.1.15,2013-02-02 21:35:00,
2013-02-02 16:45:00,62.0,41.0,30.17,East,92,0.0,0.0,46,0.00,,,0.00,Wunderground v.1.15,2013-02-02 21:45:00,
2013-02-02 16:50:00,61.9,40.9,30.17,East,92,0.0,0.0,46,0.00,,,0.00,Wunderground v.1.15,2013-02-02 21:50:00,
2013-02-02 17:00:00,61.6,40.6,30.17,East,92,0.0,0.0,46,0.00,,,0.00,Wunderground v.1.15,2013-02-02 22:00:00,
2013-02-02 17:05:00,61.6,43.3,30.16,East,92,0.0,0.0,51,0.00,,,0.00,Wunderground v.1.15,2013-02-02 22:05:00,
2013-02-02 17:15:00,61.5,44.2,30.16,East,92,0.0,0.0,53,0.00,,,0.00,Wunderground v.1.15,2013-02-02 22:15:00,
2013-02-02 17:25:00,61.2,43.9,30.16,East,92,0.0,0.0,53,0.00,,,0.00,Wunderground v.1.15,2013-02-02 22:25:00,
2013-02-02 17:35:00,60.9,44.1,30.17,East,92,0.0,0.0,54,0.00,,,0.00,Wunderground v.1.15,2013-02-02 22:35:00,
2013-02-02 17:40:00,60.8,44.5,30.17,East,92,0.0,0.0,55,0.00,,,0.00,Wunderground v.1.15,2013-02-02 22:40:00,
2013-02-02 17:50:00,60.3,43.6,30.16,East,92,0.0,0.0,54,0.00,,,0.00,Wunderground v.1.15,2013-02-02 22:50:00,
2013-02-02 18:00:00,59.6,43.4,30.16,East,92,0.0,0.0,55,0.00,,,0.00,Wunderground v.1.15,2013-02-02 23:00:00,
2013-02-02 18:05:00,59.2,42.6,30.16,East,92,0.0,0.0,54,0.00,,,0.00,Wunderground v.1.15,2013-02-02 23:05:00,
2013-02-02 18:15:00,58.4,41.8,30.15,East,92,0.0,0.0,54,0.00,,,0.00,Wunderground v.1.15,2013-02-02 23:15:00,
2013-02-02 18:25:00,57.4,40.9,30.16,East,92,0.0,0.0,54,0.00,,,0.00,Wunderground v.1.15,2013-02-02 23:25:00,
2013-02-02 18:30:00,56.8,40.3,30.15,East,92,0.0,0.0,54,0.00,,,0.00,Wunderground v.1.15,2013-02-02 23:30:00,
2013-02-02 18:40:00,55.6,39.2,30.16,East,92,0.0,0.0,54,0.00,,,0.00,Wunderground v.1.15,2013-02-02 23:40:00,
2013-02-02 18:50:00,54.6,38.3,30.16,East,92,0.0,0.0,54,0.00,,,0.00,Wunderground v.1.15,2013-02-02 23:50:00,
2013-02-02 19:00:00,53.9,37.1,30.16,East,92,0.0,0.0,53,0.00,,,0.00,Wunderground v.1.15,2013-02-03 00:00:00,
2013-02-02 19:05:00,53.6,37.3,30.17,East,92,0.0,0.0,54,0.00,,,0.00,Wunderground v.1.15,2013-02-03 00:05:00,
2013-02-02 19:15:00,53.0,36.8,30.17,East,92,0.0,0.0,54,0.00,,,0.00,Wunderground v.1.15,2013-02-03 00:15:00,
2013-02-02 19:25:00,52.6,37.8,30.17,East,92,0.0,0.0,57,0.00,,,0.00,Wunderground v.1.15,2013-02-03 00:25:00,
2013-02-02 19:35:00,52.2,37.9,30.16,East,92,0.0,0.0,58,0.00,,,0.00,Wunderground v.1.15,2013-02-03 00:35:00,
2013-02-02 19:40:00,52.0,38.5,30.16,East,92,0.0,0.0,60,0.00,,,0.00,Wunderground v.1.15,2013-02-03 00:40:00,
2013-02-02 19:50:00,51.8,38.8,30.17,East,92,0.0,0.0,61,0.00,,,0.00,Wunderground v.1.15,2013-02-03 00:50:00,
2013-02-02 20:00:00,51.9,41.3,30.17,East,92,0.0,0.0,67,0.00,,,0.00,Wunderground v.1.15,2013-02-03 01:00:00,
2013-02-02 20:05:00,52.1,41.5,30.17,East,92,0.0,0.0,67,0.00,,,0.00,Wunderground v.1.15,2013-02-03 01:05:00,
2013-02-02 20:15:00,52.7,43.9,30.17,East,92,0.0,0.0,72,0.00,,,0.00,Wunderground v.1.15,2013-02-03 01:15:00,
2013-02-02 20:25:00,52.9,42.6,30.17,East,92,0.0,0.0,68,0.00,,,0.00,Wunderground v.1.15,2013-02-03 01:25:00,
2013-02-02 20:35:00,52.3,42.4,30.17,East,92,0.0,0.0,69,0.00,,,0.00,Wunderground v.1.15,2013-02-03 01:35:00,
2013-02-02 20:45:00,51.5,42.4,30.17,East,92,0.0,0.0,71,0.00,,,0.00,Wunderground v.1.15,2013-02-03 01:45:00,
2013-02-02 20:50:00,51.1,42.4,30.17,East,92,0.0,0.0,72,0.00,,,0.00,Wunderground v.1.15,2013-02-03 01:50:00,
2013-02-02 21:00:00,50.5,42.5,30.17,East,92,0.0,0.0,74,0.00,,,0.00,Wunderground v.1.15,2013-02-03 02:00:00,
2013-02-02 21:05:00,50.2,42.6,30.17,East,92,0.0,0.0,75,0.00,,,0.00,Wunderground v.1.15,2013-02-03 02:05:00,
2013-02-02 21:15:00,49.8,42.9,30.18,East,92,0.0,0.0,77,0.00,,,0.00,Wunderground v.1.15,2013-02-03 02:15:00,
2013-02-02 21:20:00,49.5,42.6,30.18,East,92,0.0,0.0,77,0.00,,,0.00,Wunderground v.1.15,2013-02-03 02:20:00,
2013-02-02 21:30:00,49.2,42.6,30.17,East,92,0.0,0.0,78,0.00,,,0.00,Wunderground v.1.15,2013-02-03 02:30:00,
2013-02-02 21:35:00,49.1,42.9,30.17,East,92,0.0,0.0,79,0.00,,,0.00,Wunderground v.1.15,2013-02-03 02:35:00,
2013-02-02 21:40:00,49.0,42.8,30.17,East,92,0.0,0.0,79,0.00,,,0.00,Wunderground v.1.15,2013-02-03 02:40:00,
2013-02-02 21:50:00,49.1,42.5,30.18,East,92,0.0,0.0,78,0.00,,,0.00,Wunderground v.1.15,2013-02-03 02:50:00,
2013-02-02 22:00:00,48.7,42.5,30.17,East,92,0.0,0.0,79,0.00,,,0.00,Wunderground v.1.15,2013-02-03 03:00:00,
2013-02-02 22:05:00,48.5,42.6,30.17,East,92,0.0,0.0,80,0.00,,,0.00,Wunderground v.1.15,2013-02-03 03:05:00,
2013-02-02 22:15:00,48.4,42.8,30.17,East,92,0.0,0.0,81,0.00,,,0.00,Wunderground v.1.15,2013-02-03 03:15:00,
2013-02-02 22:25:00,48.5,43.3,30.17,East,92,0.0,0.0,82,0.00,,,0.00,Wunderground v.1.15,2013-02-03 03:25:00,
2013-02-02 22:35:00,48.3,42.7,30.16,East,92,0.0,0.0,81,0.00,,,0.00,Wunderground v.1.15,2013-02-03 03:35:00,
2013-02-02 22:45:00,48.4,43.5,30.16,East,92,0.0,0.0,83,0.00,,,0.00,Wunderground v.1.15,2013-02-03 03:45:00,
2013-02-02 22:50:00,48.5,43.6,30.16,East,92,0.0,0.0,83,0.00,,,0.00,Wunderground v.1.15,2013-02-03 03:50:00,
2013-02-02 23:00:00,48.5,43.3,30.16,East,92,0.0,0.0,82,0.00,,,0.00,Wunderground v.1.15,2013-02-03 04:00:00,
2013-02-02 23:05:00,48.5,43.3,30.16,East,92,0.0,0.0,82,0.00,,,0.00,Wunderground v.1.15,2013-02-03 04:05:00,
2013-02-02 23:15:00,48.2,42.6,30.16,East,92,0.0,0.0,81,0.00,,,0.00,Wunderground v.1.15,2013-02-03 04:15:00,
2013-02-02 23:20:00,48.0,42.8,30.16,East,92,0.0,0.0,82,0.00,,,0.00,Wunderground v.1.15,2013-02-03 04:20:00,
2013-02-02 23:30:00,47.8,42.9,30.16,East,92,0.0,0.0,83,0.00,,,0.00,Wunderground v.1.15,2013-02-03 04:30:00,
2013-02-02 23:35:00,47.7,42.8,30.16,East,92,0.0,0.0,83,0.00,,,0.00,Wunderground v.1.15,2013-02-03 04:35:00,
2013-02-02 23:45:00,47.5,42.6,30.16,East,92,0.0,0.0,83,0.00,,,0.00,Wunderground v.1.15,2013-02-03 04:45:00,
2013-02-02 23:55:00,47.2,42.6,30.16,East,92,0.0,0.0,84,0.00,,,0.00,Wunderground v.1.15,2013-02-03 04:55:00,